Time;durP1;ratioP1;P1;durP2;ratioP2;P2;SDS_P1;SDS_P2;PMS_P1;PMS_P2;Temp;Humidity;BMP_temperature;BMP_pressure;BME280_temperature;BME280_humidity;BME280_pressure;Samples;Min_cycle;Max_cycle;Signal;HPM_P1;HPM_P2
2023/02/22 00:00:42;;;;;;;1.30;1.00;;;;;;;3.41;73.64;99464.06;107769;1278;60552;-94
2023/02/22 00:03:51;;;;;;;1.20;0.70;;;;;;;3.42;73.45;99464.02;106726;1283;72431;-95
2023/02/22 00:06:26;;;;;;;2.20;0.80;;;;;;;3.37;73.54;99464.13;105841;1283;65883;-94
2023/02/22 00:09:09;;;;;;;1.00;0.90;;;;;;;3.35;73.52;99473.20;106439;1283;73250;-94
2023/02/22 00:12:01;;;;;;;1.30;0.70;;;;;;;3.32;73.71;99471.57;106205;1282;59818;-94
2023/02/22 00:14:34;;;;;;;2.10;0.80;;;;;;;3.34;73.93;99478.27;106303;1283;61322;-94
2023/02/22 00:17:20;;;;;;;1.10;0.70;;;;;;;3.32;73.79;99473.53;106272;1282;73329;-95
2023/02/22 00:20:05;;;;;;;1.60;0.90;;;;;;;3.30;73.94;99488.27;106458;1283;62403;-94
2023/02/22 00:23:45;;;;;;;1.20;0.90;;;;;;;3.26;73.91;99491.41;107441;1273;72334;-94
2023/02/22 00:27:44;;;;;;;2.90;0.80;;;;;;;3.19;73.91;99500.19;107602;1276;59795;-95
2023/02/22 00:30:58;;;;;;;0.70;0.70;;;;;;;3.14;73.62;99506.98;107520;1275;58959;-95
2023/02/22 00:34:25;;;;;;;0.60;0.50;;;;;;;3.13;73.73;99519.30;107279;1276;73141;-95
2023/02/22 00:37:41;;;;;;;0.80;0.60;;;;;;;3.08;73.94;99531.10;106595;1280;64743;-95
2023/02/22 00:40:40;;;;;;;1.10;0.80;;;;;;;3.06;73.93;99533.98;107113;1280;72204;-94
2023/02/22 00:43:38;;;;;;;1.90;1.70;;;;;;;3.04;74.04;99534.08;107250;1278;58704;-95
2023/02/22 00:46:28;;;;;;;0.80;0.80;;;;;;;3.04;74.24;99543.55;106854;1278;59359;-94
2023/02/22 00:49:41;;;;;;;1.10;0.80;;;;;;;3.06;74.26;99546.36;106944;1282;72470;-91
2023/02/22 00:52:50;;;;;;;1.40;1.00;;;;;;;3.06;74.28;99550.88;107287;1282;67204;-94
2023/02/22 00:55:40;;;;;;;1.70;1.10;;;;;;;3.04;74.27;99563.95;107267;1282;72706;-94
2023/02/22 01:03:30;;;;;;;1.30;1.20;;;;;;;2.97;74.55;99579.78;106835;1283;59428;-94
2023/02/22 01:06:17;;;;;;;0.90;0.90;;;;;;;2.92;74.93;99583.83;106331;1282;72352;-95
2023/02/22 01:20:19;;;;;;;0.90;0.90;;;;;;;3.18;74.72;99613.89;107091;1285;611785;-96
2023/02/22 01:23:30;;;;;;;1.20;1.00;;;;;;;3.15;74.56;99624.89;102296;1263;8787396;-94
2023/02/22 01:32:05;;;;;;;1.20;0.90;;;;;;;3.04;75.66;99651.64;107339;1272;66672;-95
2023/02/22 01:36:15;;;;;;;0.80;0.80;;;;;;;2.97;76.36;99661.64;108301;1253;71479;31
2023/02/22 01:39:43;;;;;;;1.10;1.00;;;;;;;2.92;76.85;99672.23;109155;1259;59536;-95
2023/02/22 01:42:51;;;;;;;1.80;1.30;;;;;;;2.87;76.99;99675.02;108777;1263;59116;-93
2023/02/22 01:45:31;;;;;;;0.80;0.80;;;;;;;2.81;77.18;99678.37;109024;1260;72079;-92
2023/02/22 01:48:27;;;;;;;1.10;1.00;;;;;;;2.78;77.47;99681.27;108157;1263;62130;-94
2023/02/22 01:51:20;;;;;;;1.50;1.40;;;;;;;2.80;77.79;99687.23;107836;1262;71457;-95
2023/02/22 01:54:14;;;;;;;1.60;1.30;;;;;;;2.81;77.74;99692.02;107545;1262;59572;-94
2023/02/22 01:57:01;;;;;;;1.60;1.30;;;;;;;2.79;77.79;99695.36;107753;1262;60851;-94
2023/02/22 02:00:08;;;;;;;1.70;1.40;;;;;;;2.77;77.79;99704.96;107841;1262;72289;-95
2023/02/22 02:03:08;;;;;;;1.40;1.30;;;;;;;2.73;77.81;99710.30;107760;1261;63862;-94
2023/02/22 02:05:40;;;;;;;1.70;1.60;;;;;;;2.65;77.86;99715.80;107322;1261;74754;-96
2023/02/22 02:08:39;;;;;;;1.00;0.90;;;;;;;2.63;78.22;99722.30;108290;1262;59480;-95
2023/02/22 02:11:50;;;;;;;2.50;2.20;;;;;;;2.62;78.06;99728.88;108990;1262;59107;-94
2023/02/22 02:14:23;;;;;;;2.10;2.00;;;;;;;2.65;78.23;99736.84;109032;1259;74412;-95
2023/02/22 02:18:44;;;;;;;3.20;2.90;;;;;;;2.80;77.82;99743.52;105337;1286;600284;-95
2023/02/22 02:21:34;;;;;;;2.80;2.50;;;;;;;2.84;77.51;99749.90;107479;1270;59219;-93
2023/02/22 02:25:29;;;;;;;2.70;2.50;;;;;;;2.84;76.98;99765.21;109255;1260;60226;-94
2023/02/22 02:29:02;;;;;;;5.10;4.60;;;;;;;2.72;76.72;99767.84;108004;1270;72394;-95
2023/02/22 02:32:14;;;;;;;3.40;3.10;;;;;;;2.68;76.94;99778.48;107013;1264;1241171;-94
2023/02/22 02:34:58;;;;;;;4.40;3.20;;;;;;;2.64;77.03;99782.82;108309;1261;71682;-95
2023/02/22 02:37:41;;;;;;;3.90;3.60;;;;;;;2.60;77.40;99794.36;108190;1264;59237;-95
2023/02/22 02:40:19;;;;;;;4.10;3.30;;;;;;;2.56;78.05;99805.38;108091;1262;60255;-95
2023/02/22 02:43:26;;;;;;;3.70;3.40;;;;;;;2.55;78.79;99814.58;107931;1263;73189;-94
2023/02/22 02:46:29;;;;;;;4.40;4.00;;;;;;;2.51;79.52;99819.04;108171;1262;65047;-95
2023/02/22 02:49:39;;;;;;;5.30;4.80;;;;;;;2.49;79.69;99831.55;108312;1271;73582;-94
2023/02/22 02:52:19;;;;;;;4.80;4.40;;;;;;;2.32;79.58;99829.96;108498;1270;60246;-94
2023/02/22 02:55:22;;;;;;;5.10;4.40;;;;;;;2.13;79.67;99840.19;107299;1267;60385;-95
2023/02/22 02:57:52;;;;;;;5.70;5.10;;;;;;;2.03;80.09;99842.28;107044;1266;73047;-93
2023/02/22 03:00:27;;;;;;;6.80;5.70;;;;;;;1.98;80.52;99847.30;107052;1267;64932;-93
2023/02/22 03:03:19;;;;;;;7.20;6.20;;;;;;;1.96;80.90;99853.23;107151;1267;72526;-93
2023/02/22 03:06:13;;;;;;;9.50;5.40;;;;;;;1.98;80.91;99863.33;107729;1260;59393;-95
2023/02/22 03:09:36;;;;;;;6.70;5.10;;;;;;;2.03;80.98;99874.85;107572;1261;59557;-95
2023/02/22 03:12:29;;;;;;;6.40;5.80;;;;;;;1.99;80.45;99881.04;107394;1262;72662;-93
2023/02/22 03:15:26;;;;;;;9.60;6.50;;;;;;;1.94;80.49;99886.75;107370;1260;63736;-92
2023/02/22 03:18:48;;;;;;;6.80;6.10;;;;;;;1.94;80.68;99892.09;108073;1260;74038;-93
2023/02/22 03:22:13;;;;;;;7.00;6.30;;;;;;;1.89;80.36;99897.94;107443;1267;60751;-95
2023/02/22 03:24:58;;;;;;;6.80;6.20;;;;;;;1.86;80.07;99907.52;107954;1259;60356;-94
2023/02/22 03:27:52;;;;;;;6.70;5.80;;;;;;;1.78;79.42;99917.48;109504;1253;73414;-96
2023/02/22 03:31:37;;;;;;;7.20;6.00;;;;;;;1.68;79.36;99922.48;108567;1253;63794;-95
2023/02/22 03:34:40;;;;;;;9.90;7.20;;;;;;;1.66;78.70;99915.46;108887;1252;72654;-96
2023/02/22 03:37:54;;;;;;;7.70;6.50;;;;;;;1.57;78.42;99922.31;108135;1254;59634;-95
2023/02/22 03:41:04;;;;;;;8.70;6.90;;;;;;;1.54;78.31;99930.34;109432;1257;60315;-95
2023/02/22 03:44:08;;;;;;;8.30;7.20;;;;;;;1.50;78.31;99932.56;109426;1256;73033;-94
2023/02/22 03:46:47;;;;;;;7.80;6.90;;;;;;;1.45;77.78;99931.72;109288;1256;64375;-91
2023/02/22 03:50:08;;;;;;;7.60;6.10;;;;;;;1.32;77.48;99933.16;109145;1258;71707;-95
2023/02/22 03:58:21;;;;;;;7.30;6.10;;;;;;;1.20;77.02;99954.89;108035;1265;59942;-95
2023/02/22 04:01:08;;;;;;;7.40;5.40;;;;;;;1.19;76.91;99970.75;107895;1265;60014;-96
2023/02/22 04:03:50;;;;;;;6.50;5.20;;;;;;;1.22;76.90;99975.84;107729;1269;71458;-94
2023/02/22 04:06:25;;;;;;;7.80;5.80;;;;;;;1.22;76.84;99978.75;104945;1264;3425926;-95
2023/02/22 04:08:55;;;;;;;6.60;5.60;;;;;;;1.25;76.73;99987.45;107183;1263;72557;-96
2023/02/22 04:11:25;;;;;;;6.40;5.80;;;;;;;1.29;76.52;99993.70;107558;1268;58761;-94
2023/02/22 04:14:12;;;;;;;7.60;5.90;;;;;;;1.29;76.20;99994.73;108023;1252;60936;-96
2023/02/22 04:17:18;;;;;;;6.60;5.90;;;;;;;1.18;76.03;100000.23;109541;1252;73413;-94
2023/02/22 04:20:26;;;;;;;7.20;6.00;;;;;;;1.12;76.02;100011.79;108941;1253;65213;-95
2023/02/22 04:23:07;;;;;;;6.70;5.40;;;;;;;1.09;76.21;100026.33;108864;1253;70541;-96
2023/02/22 04:25:42;;;;;;;6.90;6.20;;;;;;;1.12;76.38;100032.61;108385;1253;61152;-94
2023/02/22 04:28:18;;;;;;;7.80;6.00;;;;;;;1.16;76.45;100041.11;107953;1253;60244;-95
2023/02/22 04:31:15;;;;;;;7.50;6.00;;;;;;;1.25;76.60;100045.30;108274;1253;72750;-94
2023/02/22 04:33:52;;;;;;;7.60;6.10;;;;;;;1.33;76.40;100047.11;108109;1253;61929;-95
2023/02/22 04:36:32;;;;;;;9.50;7.10;;;;;;;1.39;76.16;100054.16;108533;1253;71967;-95
2023/02/22 04:39:49;;;;;;;7.60;5.40;;;;;;;1.46;75.86;100062.54;108378;1253;59924;-95
2023/02/22 04:42:22;;;;;;;8.70;6.50;;;;;;;1.50;75.67;100066.54;108852;1254;62367;-96
2023/02/22 04:45:24;;;;;;;7.00;5.70;;;;;;;1.53;75.20;100072.48;108100;1254;74554;-96
2023/02/22 04:48:39;;;;;;;7.60;6.10;;;;;;;1.50;74.85;100080.69;108448;1253;64798;-96
2023/02/22 04:51:09;;;;;;;8.00;6.80;;;;;;;1.47;74.85;100087.84;108429;1254;72735;-94
2023/02/22 04:54:25;;;;;;;8.10;6.60;;;;;;;1.47;74.74;100095.60;108326;1253;61517;-93
2023/02/22 04:56:56;;;;;;;7.10;5.90;;;;;;;1.47;74.63;100101.61;109131;1253;60287;-95
2023/02/22 04:59:52;;;;;;;7.90;6.20;;;;;;;1.46;74.79;100107.86;108940;1255;71780;-96
2023/02/22 05:02:41;;;;;;;7.70;5.90;;;;;;;1.48;74.94;100105.91;108375;1257;63802;-96
2023/02/22 05:06:23;;;;;;;7.00;5.70;;;;;;;1.49;74.73;100111.40;108555;1257;71867;-96
2023/02/22 05:15:01;;;;;;;9.30;6.20;;;;;;;1.42;74.16;100134.84;109667;1246;59678;-96
2023/02/22 05:19:03;;;;;;;7.20;5.00;;;;;;;1.35;74.45;100135.40;109104;1260;72308;-95
2023/02/22 05:22:13;;;;;;;5.60;4.70;;;;;;;1.43;73.94;100147.38;109101;1260;61390;-95
2023/02/22 05:25:10;;;;;;;7.10;4.90;;;;;;;1.47;73.45;100161.05;108655;1260;72008;-96
2023/02/22 05:28:24;;;;;;;6.40;4.30;;;;;;;1.44;73.29;100164.05;108697;1260;62654;-93
2023/02/22 05:31:00;;;;;;;6.30;5.40;;;;;;;1.43;73.29;100164.77;108973;1260;59564;-94
2023/02/22 05:33:35;;;;;;;7.10;4.90;;;;;;;1.43;73.25;100174.26;109086;1260;72081;-95
2023/02/22 05:36:04;;;;;;;5.60;4.20;;;;;;;1.50;73.29;100187.48;109102;1260;63855;-96
2023/02/22 05:38:33;;;;;;;5.10;4.00;;;;;;;1.56;72.61;100198.34;109128;1260;72560;-94
2023/02/22 05:41:13;;;;;;;5.30;4.10;;;;;;;1.57;72.28;100205.73;108914;1260;59306;-95
2023/02/22 05:43:46;;;;;;;6.80;4.60;;;;;;;1.60;72.01;100209.77;108555;1260;61351;-95
2023/02/22 05:46:35;;;;;;;7.70;5.20;;;;;;;1.64;71.57;100213.79;108374;1260;72568;-96
2023/02/22 11:13:34;;;;;;;;;;;;;;;;;;;;;
2023/02/22 11:17:50;;;;;;;17.30;10.90;;;;;;;2.01;56.97;100582.11;111483;1245;57967;-94
2023/02/22 11:21:44;;;;;;;16.40;11.00;;;;;;;2.09;57.09;100593.65;111890;1235;58642;-95
2023/02/22 11:25:32;;;;;;;18.50;11.40;;;;;;;2.21;57.18;100586.08;110058;1253;71394;-96
2023/02/22 12:10:54;;;;;;;18.20;11.20;;;;;;;2.69;56.34;100603.77;112344;1234;58146;-94
2023/02/22 12:32:17;;;;;;;20.20;12.50;;;;;;;1.97;59.39;100640.67;111837;1235;58933;-96
2023/02/22 12:51:54;;;;;;;24.30;12.50;;;;;;;2.18;59.66;100646.19;107148;1277;61100;31
2023/02/22 13:00:25;;;;;;;19.90;12.40;;;;;;;2.15;59.06;100649.89;99787;1286;64579;-96
2023/02/22 13:12:12;;;;;;;19.90;10.30;;;;;;;1.85;57.75;100663.35;107820;1270;62908;31
2023/02/22 13:19:45;;;;;;;15.00;9.20;;;;;;;1.86;57.44;100672.48;107930;1270;58083;31
2023/02/22 13:24:12;;;;;;;15.60;9.60;;;;;;;1.80;56.88;100681.23;107627;1275;58901;-96
2023/02/22 14:10:25;;;;;;;;;;;;;;;0.94;57.34;100722.63;106776;1260;58273;31
2023/02/22 14:14:18;;;;;;;13.50;8.60;;;;;;;0.90;57.25;100731.64;108335;1267;59981;-94
2023/02/22 14:18:15;;;;;;;14.40;9.50;;;;;;;0.83;56.95;100734.70;108162;1267;72433;-95
2023/02/22 14:23:11;;;;;;;11.20;8.30;;;;;;;0.69;56.90;100737.02;107801;1276;62294;-96
2023/02/22 14:27:16;;;;;;;12.30;7.70;;;;;;;0.58;56.84;100739.27;106552;1286;72244;-95
2023/02/22 14:38:56;;;;;;;12.90;7.70;;;;;;;0.37;56.84;100750.27;106816;1277;72705;-93
2023/02/22 14:42:43;;;;;;;12.60;8.50;;;;;;;0.32;56.89;100759.97;106374;1288;62537;-95
2023/02/22 14:46:17;;;;;;;13.60;8.40;;;;;;;0.27;56.91;100771.06;106130;1293;71532;-96
2023/02/22 16:35:35;;;;;;;13.40;8.40;;;;;;;-1.28;59.65;100920.75;108323;1264;58986;-95
2023/02/22 16:40:50;;;;;;;;;;;;;;;;;;;;;
2023/02/22 23:04:57;;;;;;;19.40;10.40;;;;;;;-4.13;62.34;101208.95;107354;1286;599265;-94
2023/02/22 23:07:58;;;;;;;24.70;15.00;;;;;;;-4.13;62.25;101213.23;108862;1266;60085;-94
2023/02/22 23:10:50;;;;;;;38.50;18.10;;;;;;;-4.11;62.64;101216.67;107244;1269;61129;-94
2023/02/22 23:13:43;;;;;;;17.20;10.50;;;;;;;-4.10;62.66;101214.98;107446;1257;71458;-95
2023/02/22 23:16:32;;;;;;;19.80;11.00;;;;;;;-4.10;62.80;101211.38;107416;1257;63510;-95
2023/02/22 23:19:21;;;;;;;18.10;9.90;;;;;;;-4.11;62.79;101211.38;106698;1261;1136848;-94
2023/02/22 23:21:57;;;;;;;16.20;9.70;;;;;;;-4.09;62.59;101216.17;108480;1258;59187;-95
2023/02/22 23:24:43;;;;;;;17.10;11.10;;;;;;;-4.10;62.68;101219.92;109929;1253;59955;-95
2023/02/22 23:27:23;;;;;;;14.70;10.00;;;;;;;-4.12;62.96;101226.39;109143;1254;70998;-94
2023/02/22 23:30:27;;;;;;;17.80;10.00;;;;;;;-4.13;62.94;101238.67;108279;1252;64114;-95
2023/02/22 23:33:00;;;;;;;18.30;10.60;;;;;;;-4.14;63.13;101238.66;108025;1253;73730;-95
2023/02/22 23:35:36;;;;;;;20.90;11.70;;;;;;;-4.14;63.26;101236.44;108168;1255;61484;-95
2023/02/22 23:38:09;;;;;;;17.30;10.50;;;;;;;-4.13;63.70;101239.52;106910;1253;61204;-95
2023/02/22 23:40:43;;;;;;;17.80;10.80;;;;;;;-4.15;63.71;101242.23;107240;1253;73081;-95
2023/02/22 23:43:52;;;;;;;13.30;9.80;;;;;;;-4.10;63.93;101249.13;107297;1252;63030;-95
2023/02/22 23:46:21;;;;;;;14.00;9.00;;;;;;;-4.04;64.35;101251.05;106455;1259;73211;-94
2023/02/22 23:49:00;;;;;;;19.70;11.10;;;;;;;-4.00;64.47;101255.36;107033;1252;59602;-95
2023/02/22 23:51:38;;;;;;;24.60;13.40;;;;;;;-3.90;64.55;101263.48;107692;1252;60505;-94
2023/02/22 23:54:34;;;;;;;18.40;12.00;;;;;;;-3.83;64.37;101261.68;109248;1253;75677;-93
2023/02/22 23:57:23;;;;;;;19.20;13.70;;;;;;;-3.78;64.26;101267.20;109794;1253;64750;-94
